Salisbury, Connecticut
Current Conditions -  °F | °C
As of 8:54 AM on Monday 22 Dec 2014 (Local Time) from KPSF Reporting Station
Overcast Overcast  
Wind Chill: 32°   Ceiling: 700
Heat Index: 32°   Visibility: 10mi
Dew Point: 30°   Wind: 3mph
Humidity: 92%   Direction: 50°NE
Pressure: 30.29"   Gusts: NA
Location:  41.98°N, 73.42°W
Report Text: KPSF 221354Z AUTO 05003KT 10SM OVC007 00/M01 A3029 RMK AO2 SLP269 T00001011
Loading
Personal Weather Stations






























Interactive Weather Map New forecast layout! Learn more

10-Day Weather Forecast

Advertisements
Track Severe Weather on mobile